Time;durP1;ratioP1;P1;durP2;ratioP2;P2;SDS_P1;SDS_P2;PMS_P1;PMS_P2;Temp;Humidity;BMP_temperature;BMP_pressure;BME280_temperature;BME280_humidity;BME280_pressure;Samples;Min_cycle;Max_cycle;Signal;HPM_P1;HPM_P2
2023/04/27 00:01:14;;;;;;;4.72;2.80;;;1.50;99.90;;;;;;5052430;28;20049;-73
2023/04/27 00:03:41;;;;;;;5.63;2.58;;;1.20;99.90;;;;;;5053680;28;20079;-74
2023/04/27 00:06:08;;;;;;;4.97;2.58;;;1.30;99.90;;;;;;5053365;28;20095;-73
2023/04/27 00:08:34;;;;;;;4.28;2.33;;;1.20;99.90;;;;;;5053346;28;20056;-74
2023/04/27 00:11:00;;;;;;;3.63;2.55;;;1.20;99.90;;;;;;5052848;28;20049;-74
2023/04/27 00:13:25;;;;;;;4.28;1.98;;;1.70;99.90;;;;;;5053166;28;20084;-74
2023/04/27 00:15:51;;;;;;;4.38;2.53;;;1.10;99.90;;;;;;5053270;28;20440;-74
2023/04/27 00:18:17;;;;;;;4.20;2.40;;;1.10;99.90;;;;;;5053243;28;20045;-74
2023/04/27 00:20:43;;;;;;;3.15;1.90;;;1.00;99.90;;;;;;5053224;28;20106;-74
2023/04/27 00:23:09;;;;;;;3.42;1.95;;;0.90;99.90;;;;;;5053096;28;20131;-74
2023/04/27 00:25:35;;;;;;;5.40;2.70;;;0.90;99.90;;;;;;5053156;28;20045;-74
2023/04/27 00:28:01;;;;;;;4.95;2.50;;;0.80;99.90;;;;;;5053360;28;20060;-74
2023/04/27 00:30:27;;;;;;;5.25;2.58;;;0.80;99.90;;;;;;5055054;28;20086;-74
2023/04/27 00:32:53;;;;;;;6.55;2.47;;;0.80;99.90;;;;;;5056932;28;20068;-74
2023/04/27 00:35:18;;;;;;;5.30;2.58;;;0.70;99.90;;;;;;5057544;28;20056;-74
2023/04/27 00:37:44;;;;;;;5.78;2.45;;;0.80;99.90;;;;;;5056683;28;20126;-74
2023/04/27 00:40:10;;;;;;;7.95;2.70;;;0.70;99.90;;;;;;5057405;28;20045;-73
2023/04/27 00:42:36;;;;;;;4.80;2.70;;;0.70;99.90;;;;;;5056818;28;20228;-74
2023/04/27 00:45:04;;;;;;;3.80;2.53;;;0.60;99.90;;;;;;5056759;28;20529;-74
2023/04/27 00:47:31;;;;;;;3.58;2.25;;;0.60;99.90;;;;;;5057540;28;20045;-74
2023/04/27 00:49:57;;;;;;;6.30;2.90;;;0.60;99.90;;;;;;5057246;28;20048;-74
2023/04/27 00:52:22;;;;;;;4.38;2.85;;;0.60;99.90;;;;;;5057075;28;20128;-74
2023/04/27 00:54:50;;;;;;;5.10;2.53;;;1.20;99.90;;;;;;5056607;28;20052;-74
2023/04/27 00:57:16;;;;;;;4.30;2.70;;;0.50;99.90;;;;;;5057131;28;20057;-74
2023/04/27 00:59:42;;;;;;;4.75;2.72;;;0.40;99.90;;;;;;5056720;28;20123;-74
2023/04/27 01:02:11;;;;;;;4.55;2.55;;;1.00;99.90;;;;;;5055764;28;20505;-74
2023/04/27 01:04:36;;;;;;;5.03;3.20;;;0.70;99.90;;;;;;5057015;28;20056;-73
2023/04/27 01:07:02;;;;;;;5.82;3.20;;;1.20;99.90;;;;;;5055452;28;20397;-73
2023/04/27 01:09:28;;;;;;;4.32;2.78;;;1.10;99.90;;;;;;5057078;28;20386;-73
2023/04/27 01:11:54;;;;;;;4.05;2.63;;;0.50;99.90;;;;;;5056262;28;20048;-74
2023/04/27 01:14:20;;;;;;;4.72;2.85;;;0.50;99.90;;;;;;5056204;28;20055;-74
2023/04/27 01:16:46;;;;;;;4.93;2.75;;;0.50;99.90;;;;;;5055083;28;20127;-74
2023/04/27 01:19:12;;;;;;;6.25;2.97;;;0.80;99.90;;;;;;5056138;28;20148;-74
2023/04/27 01:21:38;;;;;;;4.53;2.75;;;0.40;99.90;;;;;;5056897;28;20040;-73
2023/04/27 01:24:07;;;;;;;4.72;3.00;;;0.40;99.90;;;;;;5056829;28;20470;-73
2023/04/27 01:26:33;;;;;;;6.22;3.13;;;0.40;99.90;;;;;;5056157;28;20049;-73
2023/04/27 01:28:58;;;;;;;5.63;3.13;;;0.80;99.90;;;;;;5056435;28;20053;-73
2023/04/27 01:31:24;;;;;;;4.93;2.97;;;0.30;99.90;;;;;;5055103;28;20040;-73
2023/04/27 01:33:50;;;;;;;4.13;2.85;;;1.10;99.90;;;;;;5058049;28;20492;-73
2023/04/27 01:36:16;;;;;;;5.55;2.70;;;0.20;99.90;;;;;;5057745;28;20560;-73
2023/04/27 01:38:42;;;;;;;7.10;2.95;;;0.20;99.90;;;;;;5056104;28;20047;-73
2023/04/27 01:41:08;;;;;;;6.10;2.42;;;0.70;99.90;;;;;;5054962;28;20049;-73
2023/04/27 01:43:37;;;;;;;6.30;3.00;;;0.10;99.90;;;;;;5056208;28;20045;-73
2023/04/27 01:46:08;;;;;;;5.30;2.38;;;0.00;99.90;;;;;;5055690;28;20128;-73
2023/04/27 01:48:34;;;;;;;5.75;2.90;;;0.00;99.90;;;;;;5055649;28;20041;-74
2023/04/27 01:51:01;;;;;;;6.00;2.97;;;-0.10;99.90;;;;;;5055630;28;20106;-74
2023/04/27 01:53:27;;;;;;;5.18;2.67;;;-0.10;99.90;;;;;;5054308;28;20409;-74
2023/04/27 01:55:52;;;;;;;7.68;2.95;;;-0.10;99.90;;;;;;5055486;28;20045;-74
2023/04/27 01:58:18;;;;;;;6.82;3.03;;;0.40;99.90;;;;;;5055415;28;20052;-74
2023/04/27 02:00:44;;;;;;;5.20;2.90;;;0.00;99.90;;;;;;5055396;28;20044;-73
2023/04/27 02:03:09;;;;;;;6.95;3.22;;;0.10;99.90;;;;;;5055931;28;20489;-74
2023/04/27 02:05:35;;;;;;;5.22;2.80;;;0.20;99.90;;;;;;5056413;28;20442;-74
2023/04/27 02:08:01;;;;;;;5.70;3.05;;;0.30;99.90;;;;;;5054052;28;20045;-73
2023/04/27 02:10:27;;;;;;;4.85;3.10;;;0.80;99.90;;;;;;5055195;28;20456;-73
2023/04/27 02:12:52;;;;;;;5.28;2.83;;;0.40;99.90;;;;;;5054750;28;20045;-74
2023/04/27 02:15:18;;;;;;;5.05;2.92;;;0.40;99.90;;;;;;5054179;28;20056;-73
2023/04/27 02:17:44;;;;;;;5.40;2.95;;;1.00;99.90;;;;;;5055114;28;20128;-73
2023/04/27 02:20:11;;;;;;;3.97;2.83;;;0.40;99.90;;;;;;5055859;28;20044;-74
2023/04/27 02:22:42;;;;;;;5.20;2.80;;;1.00;99.90;;;;;;5053837;28;20045;-74
2023/04/27 02:25:08;;;;;;;5.40;2.85;;;0.50;99.90;;;;;;5054969;28;20106;-73
2023/04/27 02:27:36;;;;;;;4.47;3.25;;;0.50;99.90;;;;;;5054796;28;20136;-73
2023/04/27 02:30:10;;;;;;;5.30;3.22;;;1.20;99.90;;;;;;5054791;28;20082;-73
2023/04/27 02:32:36;;;;;;;5.35;3.15;;;0.60;99.90;;;;;;5054891;28;20048;-74
2023/04/27 02:35:03;;;;;;;5.68;2.90;;;1.00;99.90;;;;;;5054758;28;20045;-74
2023/04/27 02:37:29;;;;;;;3.80;2.65;;;0.50;99.90;;;;;;5053706;28;20041;-74
2023/04/27 02:39:55;;;;;;;6.45;2.80;;;1.50;99.90;;;;;;5054583;28;20052;-74
2023/04/27 02:42:21;;;;;;;6.10;2.92;;;0.50;99.90;;;;;;5053256;28;20081;-74
2023/04/27 02:44:47;;;;;;;5.43;2.92;;;0.80;99.90;;;;;;5054774;28;20055;-74
2023/04/27 02:47:13;;;;;;;4.82;3.00;;;1.50;99.90;;;;;;5054461;28;20124;-74
2023/04/27 02:49:38;;;;;;;6.25;3.22;;;0.40;99.90;;;;;;5054415;28;20045;-73
2023/04/27 02:52:05;;;;;;;6.13;2.78;;;0.30;99.90;;;;;;5054362;28;20049;-73
2023/04/27 02:54:30;;;;;;;4.20;3.00;;;0.20;99.90;;;;;;5054329;28;20049;-74
2023/04/27 02:56:57;;;;;;;4.68;2.88;;;0.20;99.90;;;;;;5054805;28;20060;-73
2023/04/27 02:59:22;;;;;;;5.65;2.75;;;0.10;99.90;;;;;;5054240;28;20088;-73
2023/04/27 03:01:48;;;;;;;4.43;2.75;;;0.40;99.90;;;;;;5053849;28;20082;-74
2023/04/27 03:04:15;;;;;;;6.63;3.20;;;-0.10;99.90;;;;;;5054232;28;20041;-74
2023/04/27 03:06:41;;;;;;;5.53;3.00;;;-0.10;99.90;;;;;;5054182;28;20060;-74
2023/04/27 03:09:09;;;;;;;5.07;2.95;;;0.20;99.90;;;;;;5054112;28;20402;-73
2023/04/27 03:11:35;;;;;;;6.10;3.20;;;-0.30;99.90;;;;;;5054030;28;20080;-74
2023/04/27 03:14:01;;;;;;;6.03;3.05;;;-0.40;99.90;;;;;;5054473;28;20132;-74
2023/04/27 03:16:27;;;;;;;6.38;3.10;;;-0.40;99.90;;;;;;5052961;28;20147;-74
2023/04/27 03:18:52;;;;;;;6.72;3.17;;;-0.40;99.90;;;;;;5054683;28;20098;-73
2023/04/27 03:21:18;;;;;;;5.70;3.13;;;0.10;99.90;;;;;;5036032;28;20406;-74
2023/04/27 03:23:44;;;;;;;5.00;3.00;;;-0.50;99.90;;;;;;5052886;28;20128;-74
2023/04/27 03:26:12;;;;;;;4.85;3.15;;;0.00;99.90;;;;;;5053714;28;20060;-73
2023/04/27 03:28:38;;;;;;;6.22;3.30;;;-0.60;99.90;;;;;;5035931;28;20406;-74
2023/04/27 03:31:08;;;;;;;6.18;3.55;;;-0.50;99.90;;;;;;5054411;28;20040;-74
2023/04/27 03:33:35;;;;;;;6.82;3.70;;;-0.40;99.90;;;;;;5053534;28;20485;-74
2023/04/27 03:36:01;;;;;;;7.70;3.65;;;-0.20;99.90;;;;;;5053635;28;20044;-74
2023/04/27 03:38:27;;;;;;;7.95;4.28;;;0.00;99.90;;;;;;5052592;28;20063;-74
2023/04/27 03:40:53;;;;;;;6.97;3.97;;;0.10;99.90;;;;;;5053948;28;20045;-74
2023/04/27 03:43:19;;;;;;;7.22;3.80;;;0.30;99.90;;;;;;5053564;28;20132;-73
2023/04/27 03:45:45;;;;;;;6.00;3.50;;;0.10;99.90;;;;;;5052710;28;20059;-74
2023/04/27 03:48:11;;;;;;;8.20;3.67;;;0.10;99.90;;;;;;5053532;28;20041;-74
2023/04/27 03:50:37;;;;;;;7.22;4.22;;;0.00;99.90;;;;;;5053583;28;20444;-74
2023/04/27 03:53:03;;;;;;;9.30;4.07;;;0.00;99.90;;;;;;5053675;28;20041;-73
2023/04/27 03:55:28;;;;;;;8.10;3.97;;;-0.10;99.90;;;;;;5053986;28;20600;-73
2023/04/27 03:57:54;;;;;;;6.95;4.30;;;0.20;99.90;;;;;;5054278;28;20045;-74
2023/04/27 04:00:20;;;;;;;6.03;3.70;;;0.40;99.90;;;;;;5053398;28;20048;-73
2023/04/27 04:02:46;;;;;;;6.57;3.17;;;-0.10;99.90;;;;;;5053437;28;20045;-74
2023/04/27 04:05:13;;;;;;;6.22;3.60;;;-0.10;99.90;;;;;;5054807;28;20047;-74
2023/04/27 04:07:40;;;;;;;6.75;3.38;;;-0.20;99.90;;;;;;5056597;28;20509;-74
2023/04/27 04:10:07;;;;;;;5.90;3.20;;;-0.40;99.90;;;;;;5057994;28;20358;-74
2023/04/27 04:12:33;;;;;;;7.18;3.60;;;-0.40;99.90;;;;;;5057229;28;20032;-74
2023/04/27 04:14:58;;;;;;;7.00;3.42;;;-0.50;99.90;;;;;;5057199;28;20077;-74
2023/04/27 04:17:24;;;;;;;6.75;3.17;;;-0.50;99.90;;;;;;5056308;28;20116;-74
2023/04/27 04:19:50;;;;;;;7.20;3.75;;;0.10;99.90;;;;;;5057226;28;20040;-74
2023/04/27 04:22:16;;;;;;;5.57;3.53;;;0.30;99.90;;;;;;5057241;28;20500;-74
2023/04/27 04:24:42;;;;;;;6.05;2.88;;;-0.30;99.90;;;;;;5057986;28;20044;-74
2023/04/27 04:27:08;;;;;;;5.97;3.28;;;-0.60;99.90;;;;;;5056984;28;20056;-74
2023/04/27 04:29:33;;;;;;;6.85;3.60;;;-0.20;99.90;;;;;;5057157;28;20053;-74
2023/04/27 04:32:00;;;;;;;9.05;3.90;;;-0.10;99.90;;;;;;5056833;28;20056;-74
2023/04/27 04:34:26;;;;;;;5.68;3.42;;;-0.60;99.90;;;;;;5057540;28;20041;-74
2023/04/27 04:36:52;;;;;;;7.25;3.85;;;-0.50;99.90;;;;;;5056977;28;20056;-74
2023/04/27 04:39:19;;;;;;;6.05;3.50;;;-0.60;99.90;;;;;;5056758;28;20424;-74
2023/04/27 04:41:45;;;;;;;6.47;4.03;;;-0.20;99.90;;;;;;5057655;28;20359;-74
2023/04/27 04:44:11;;;;;;;6.18;3.47;;;-0.60;99.90;;;;;;5057402;28;20049;-75
2023/04/27 04:46:37;;;;;;;7.07;3.72;;;-0.50;99.90;;;;;;5056699;28;20049;-74
2023/04/27 04:49:03;;;;;;;9.73;4.28;;;-0.10;99.90;;;;;;5056552;28;20134;-74
2023/04/27 04:51:29;;;;;;;6.88;3.70;;;-0.30;99.90;;;;;;5055675;28;20053;-74
2023/04/27 04:53:55;;;;;;;5.97;3.58;;;0.40;99.90;;;;;;5057188;28;20053;-74
2023/04/27 04:56:21;;;;;;;6.68;3.75;;;0.30;99.90;;;;;;5056622;28;20051;-74
2023/04/27 04:58:46;;;;;;;6.78;3.40;;;-0.20;99.90;;;;;;5056612;28;20045;-74
2023/04/27 05:01:12;;;;;;;5.68;3.40;;;-0.20;99.90;;;;;;5056913;28;20454;-74
2023/04/27 05:03:38;;;;;;;5.95;3.40;;;-0.30;99.90;;;;;;5056433;28;20033;-74
2023/04/27 05:06:04;;;;;;;6.50;3.97;;;-0.10;99.90;;;;;;5055479;28;20045;-74
2023/04/27 05:08:29;;;;;;;5.88;3.47;;;-0.20;99.90;;;;;;5056167;28;20087;-74
2023/04/27 05:10:55;;;;;;;6.75;3.72;;;-0.20;99.90;;;;;;5056341;28;20041;-74
2023/04/27 05:13:23;;;;;;;6.05;3.88;;;0.60;99.90;;;;;;5055018;28;20041;-74
2023/04/27 05:15:49;;;;;;;5.50;3.25;;;0.20;99.90;;;;;;5055306;28;20056;-74
2023/04/27 05:18:15;;;;;;;7.32;3.63;;;-0.10;99.90;;;;;;5055366;28;20514;-75
2023/04/27 05:20:40;;;;;;;7.28;3.72;;;0.00;99.90;;;;;;5056141;28;20049;-75
2023/04/27 05:23:06;;;;;;;7.28;4.10;;;0.10;99.90;;;;;;5055391;28;20068;-74
2023/04/27 05:25:33;;;;;;;10.57;3.92;;;1.00;99.90;;;;;;5055782;28;20053;-74
2023/04/27 05:27:59;;;;;;;7.60;4.05;;;0.40;99.90;;;;;;5055763;28;20063;-74
2023/04/27 05:30:26;;;;;;;6.75;3.90;;;0.40;99.90;;;;;;5054990;28;20519;-74
2023/04/27 05:32:51;;;;;;;7.45;3.95;;;0.50;99.90;;;;;;5055831;28;20393;-75
2023/04/27 05:35:17;;;;;;;7.03;3.83;;;0.60;99.90;;;;;;5055894;28;20052;-74
2023/04/27 05:37:43;;;;;;;6.95;3.75;;;0.90;99.90;;;;;;5055895;28;20053;-74
2023/04/27 05:40:09;;;;;;;5.63;3.97;;;0.90;99.90;;;;;;5055804;28;20586;-74
2023/04/27 05:42:35;;;;;;;6.45;4.35;;;1.00;99.90;;;;;;5056534;28;20033;-74
2023/04/27 05:45:02;;;;;;;7.38;4.32;;;1.70;99.90;;;;;;5055386;28;20045;-74
2023/04/27 05:47:28;;;;;;;9.38;4.68;;;1.20;99.90;;;;;;5054458;28;20048;-74
2023/04/27 05:49:53;;;;;;;8.25;4.60;;;1.40;99.90;;;;;;5038302;28;20045;-74
2023/04/27 05:52:20;;;;;;;8.52;4.85;;;2.10;99.90;;;;;;5054779;28;20103;-74
2023/04/27 05:54:49;;;;;;;8.00;4.22;;;1.50;99.90;;;;;;5056237;28;20060;-74
2023/04/27 05:57:16;;;;;;;6.75;3.97;;;1.60;99.90;;;;;;5057032;28;20106;-74
2023/04/27 05:59:42;;;;;;;7.68;3.88;;;1.70;99.90;;;;;;5058132;28;20041;-74
2023/04/27 06:02:08;;;;;;;9.20;4.30;;;1.80;99.90;;;;;;5056397;28;20052;-74
2023/04/27 06:04:35;;;;;;;6.50;4.30;;;2.00;99.90;;;;;;5055527;28;20390;-74
2023/04/27 06:07:06;;;;;;;6.88;3.75;;;2.30;99.90;;;;;;5055234;28;20049;-74
2023/04/27 06:09:32;;;;;;;6.45;3.90;;;2.70;99.90;;;;;;5055258;28;20049;-74
2023/04/27 06:11:58;;;;;;;7.68;4.63;;;2.50;99.90;;;;;;5037540;28;20052;-74
2023/04/27 06:14:24;;;;;;;7.20;4.43;;;2.70;99.90;;;;;;5055677;28;20052;-75
2023/04/27 06:16:50;;;;;;;7.30;4.68;;;2.90;99.90;;;;;;5053887;28;20048;-74
2023/04/27 06:19:15;;;;;;;7.63;4.40;;;3.00;99.90;;;;;;5055027;28;20041;-74
2023/04/27 06:21:41;;;;;;;9.70;5.07;;;3.20;99.90;;;;;;5054995;28;20048;-74
2023/04/27 06:24:07;;;;;;;5.72;3.63;;;3.40;99.90;;;;;;5055491;28;20044;-74
2023/04/27 06:26:33;;;;;;;8.75;4.13;;;3.70;99.90;;;;;;5055480;28;20478;-74
2023/04/27 06:28:58;;;;;;;5.82;3.60;;;3.90;99.90;;;;;;5054813;28;20391;-74
2023/04/27 06:31:25;;;;;;;5.60;3.60;;;4.00;99.90;;;;;;5055262;28;20049;-74
2023/04/27 06:33:51;;;;;;;8.57;4.05;;;4.20;99.90;;;;;;5054309;28;20347;-74
2023/04/27 06:36:17;;;;;;;7.10;3.55;;;4.50;99.90;;;;;;5054562;28;20102;-75
2023/04/27 06:38:43;;;;;;;6.38;3.17;;;4.60;99.90;;;;;;5054810;28;20041;-75
2023/04/27 06:41:08;;;;;;;7.70;3.90;;;4.80;99.90;;;;;;5053487;28;20474;-74
2023/04/27 06:43:34;;;;;;;8.38;3.30;;;5.00;99.90;;;;;;5054509;28;20087;-74
2023/04/27 06:46:00;;;;;;;6.30;3.75;;;5.10;99.90;;;;;;5054225;28;20142;-74
2023/04/27 06:48:25;;;;;;;4.70;3.28;;;5.30;99.90;;;;;;5054504;28;20158;-74
2023/04/27 06:50:51;;;;;;;5.78;3.38;;;5.40;99.90;;;;;;5054272;28;20343;-74
2023/04/27 06:53:17;;;;;;;4.95;3.25;;;5.60;99.90;;;;;;5053273;28;20056;-74
2023/04/27 06:55:42;;;;;;;5.82;3.28;;;5.70;99.90;;;;;;5054652;28;20481;-75
2023/04/27 06:58:08;;;;;;;5.05;3.25;;;5.80;99.90;;;;;;5053328;28;20501;-75
2023/04/27 07:00:34;;;;;;;5.43;3.03;;;5.90;99.90;;;;;;5052428;28;20448;-74
2023/04/27 07:02:59;;;;;;;5.45;3.00;;;6.10;99.90;;;;;;5054559;28;20163;-80
2023/04/27 07:05:26;;;;;;;6.32;3.13;;;6.30;99.90;;;;;;5054436;28;20048;-83
2023/04/27 07:07:52;;;;;;;5.45;2.97;;;6.30;99.90;;;;;;5053984;28;20045;-81
2023/04/27 07:10:17;;;;;;;5.53;2.53;;;6.30;99.90;;;;;;5036351;28;20059;-77
2023/04/27 07:12:43;;;;;;;4.18;2.38;;;6.40;99.90;;;;;;5054042;28;20052;-77
2023/04/27 07:15:09;;;;;;;4.28;2.65;;;6.50;99.90;;;;;;5053796;28;20078;-78
2023/04/27 07:17:35;;;;;;;4.57;2.40;;;6.50;99.90;;;;;;5052633;28;20057;-77
2023/04/27 07:20:03;;;;;;;5.30;2.83;;;6.60;99.90;;;;;;5053745;28;20048;-80
2023/04/27 07:22:28;;;;;;;5.03;2.45;;;6.70;99.90;;;;;;5053752;28;20393;-79
2023/04/27 07:24:54;;;;;;;7.35;2.70;;;6.80;99.90;;;;;;5053759;28;20045;-80
2023/04/27 07:27:20;;;;;;;5.00;2.50;;;7.00;99.90;;;;;;5052792;28;20053;-81
2023/04/27 07:29:46;;;;;;;3.25;2.70;;;7.00;99.90;;;;;;5053770;28;20060;-80
2023/04/27 07:32:12;;;;;;;2.63;1.90;;;7.20;99.90;;;;;;5053192;28;20127;-81
2023/04/27 07:34:38;;;;;;;3.67;2.00;;;7.30;99.90;;;;;;5052434;28;20119;-79
2023/04/27 07:37:04;;;;;;;4.63;1.92;;;7.40;99.90;;;;;;5053614;28;20041;-79
2023/04/27 07:39:30;;;;;;;2.80;1.70;;;7.50;99.90;;;;;;5051875;28;20470;-81
2023/04/27 07:41:57;;;;;;;4.40;2.25;;;7.50;99.90;;;;;;5053805;28;20049;-81
2023/04/27 07:44:22;;;;;;;6.20;2.15;;;7.50;99.90;;;;;;5053542;28;20049;-81
2023/04/27 07:46:48;;;;;;;4.05;2.15;;;7.50;99.90;;;;;;5053539;28;20382;-82
2023/04/27 07:49:17;;;;;;;3.47;2.13;;;7.60;99.90;;;;;;5052501;28;20056;-83
2023/04/27 07:51:42;;;;;;;3.70;1.92;;;7.70;99.90;;;;;;5053470;28;20110;-79
2023/04/27 07:54:08;;;;;;;4.10;2.40;;;7.80;99.90;;;;;;5052091;28;20477;-79
2023/04/27 07:56:34;;;;;;;4.47;2.20;;;7.80;99.90;;;;;;5052404;28;20110;-79
2023/04/27 07:59:00;;;;;;;4.30;2.30;;;7.80;99.90;;;;;;5052880;28;20398;-75
2023/04/27 08:01:26;;;;;;;3.88;2.50;;;7.80;99.90;;;;;;5053306;28;20052;-73
2023/04/27 08:03:51;;;;;;;4.35;2.60;;;7.90;99.90;;;;;;5053261;28;20517;-74
2023/04/27 08:06:17;;;;;;;4.35;2.97;;;8.00;99.90;;;;;;5052279;28;20056;-73
2023/04/27 08:08:43;;;;;;;3.67;2.00;;;8.10;99.90;;;;;;5053269;28;20381;-73
2023/04/27 08:11:10;;;;;;;2.13;1.50;;;8.10;99.90;;;;;;5053161;28;20041;-80
2023/04/27 08:13:35;;;;;;;3.22;2.00;;;8.10;99.90;;;;;;5053017;28;20041;-79
2023/04/27 08:16:01;;;;;;;3.72;2.30;;;8.20;99.90;;;;;;5052205;28;20156;-72
2023/04/27 08:18:27;;;;;;;3.05;1.95;;;8.20;99.90;;;;;;5053184;28;20131;-73
2023/04/27 08:20:53;;;;;;;3.25;2.30;;;8.20;99.90;;;;;;5052086;28;20041;-71
2023/04/27 08:23:19;;;;;;;3.53;2.10;;;8.40;99.90;;;;;;5053210;28;20489;-72
2023/04/27 08:25:47;;;;;;;3.15;2.10;;;8.40;99.90;;;;;;5052806;28;20057;-71
2023/04/27 08:28:14;;;;;;;2.70;1.90;;;8.50;99.90;;;;;;5053005;28;20049;-71
2023/04/27 08:30:41;;;;;;;3.30;2.35;;;8.50;99.90;;;;;;5052927;28;20052;-72
2023/04/27 08:33:07;;;;;;;4.93;2.30;;;8.60;99.90;;;;;;5053242;28;20076;-71
2023/04/27 08:35:33;;;;;;;3.55;2.35;;;8.60;99.90;;;;;;5052952;28;20448;-72
2023/04/27 08:37:59;;;;;;;2.92;2.08;;;8.70;99.90;;;;;;5052848;28;20045;-71
2023/04/27 08:40:25;;;;;;;4.20;2.22;;;8.80;99.90;;;;;;5052662;28;20044;-72
2023/04/27 08:42:58;;;;;;;4.75;2.22;;;8.80;99.90;;;;;;5052832;28;20094;-73
2023/04/27 08:45:25;;;;;;;3.38;2.25;;;9.00;99.90;;;;;;5053546;28;20058;-74
2023/04/27 08:47:51;;;;;;;3.95;2.22;;;9.00;99.90;;;;;;5051585;28;20048;-73
2023/04/27 08:50:17;;;;;;;3.13;2.05;;;9.10;99.90;;;;;;5052973;28;20056;-79
2023/04/27 08:52:44;;;;;;;4.30;2.33;;;9.30;99.90;;;;;;5055437;28;20098;-79
2023/04/27 08:55:09;;;;;;;4.30;2.10;;;9.40;99.90;;;;;;5057018;28;20431;-80
2023/04/27 08:57:35;;;;;;;3.97;2.22;;;9.50;99.90;;;;;;5056420;28;20049;-79
2023/04/27 09:00:10;;;;;;;4.88;2.42;;;9.50;99.90;;;;;;5056378;28;20048;-81
2023/04/27 09:02:36;;;;;;;4.43;2.03;;;9.60;99.90;;;;;;5056475;28;20053;-77
2023/04/27 09:05:02;;;;;;;4.68;2.42;;;9.60;99.90;;;;;;5055158;28;20553;-81
2023/04/27 09:07:28;;;;;;;3.75;2.15;;;9.60;99.90;;;;;;5056459;28;20049;-77
2023/04/27 09:10:04;;;;;;;5.75;2.42;;;9.60;99.90;;;;;;5055334;28;20388;-84
2023/04/27 09:12:29;;;;;;;3.08;2.08;;;9.60;99.90;;;;;;5056792;28;20137;-81
2023/04/27 09:14:57;;;;;;;4.60;2.40;;;9.60;99.90;;;;;;5056543;28;20131;-74
2023/04/27 09:17:27;;;;;;;2.65;2.00;;;9.60;99.90;;;;;;5055907;28;20123;-74
2023/04/27 09:20:12;;;;;;;4.18;2.40;;;9.70;99.90;;;;;;5055927;28;20055;-74
2023/04/27 09:22:48;;;;;;;3.20;2.17;;;9.90;99.90;;;;;;5056781;28;20071;-75
2023/04/27 09:25:32;;;;;;;3.75;2.20;;;10.00;99.90;;;;;;5056070;28;20044;-74
2023/04/27 09:27:59;;;;;;;3.90;2.38;;;10.00;99.90;;;;;;5055864;28;20069;-72
2023/04/27 09:30:26;;;;;;;4.18;2.20;;;10.00;99.90;;;;;;5055550;28;20059;-72
2023/04/27 09:32:57;;;;;;;4.47;2.40;;;10.00;99.90;;;;;;5054651;28;20072;-71
2023/04/27 09:35:25;;;;;;;5.40;2.13;;;10.00;99.90;;;;;;5056281;28;20358;-72
2023/04/27 09:37:53;;;;;;;3.03;1.83;;;10.10;99.90;;;;;;5054717;28;20060;-72
2023/04/27 09:40:22;;;;;;;3.60;2.33;;;10.30;99.90;;;;;;5055620;28;20048;-72
2023/04/27 09:42:48;;;;;;;5.35;2.30;;;10.50;99.90;;;;;;5055760;28;20099;-71
2023/04/27 09:45:15;;;;;;;4.22;2.28;;;10.50;99.90;;;;;;5055567;28;20051;-72
2023/04/27 09:47:42;;;;;;;3.67;2.38;;;10.50;99.90;;;;;;5054898;28;20045;-72
2023/04/27 09:50:10;;;;;;;4.45;2.13;;;10.60;99.90;;;;;;5055209;28;20493;-72
2023/04/27 09:52:36;;;;;;;3.65;2.35;;;10.60;99.90;;;;;;5055938;28;20041;-72
2023/04/27 09:55:04;;;;;;;4.38;2.25;;;10.50;99.90;;;;;;5055882;28;20367;-73
2023/04/27 09:57:54;;;;;;;4.53;2.30;;;10.70;99.90;;;;;;5055553;28;20049;-72
2023/04/27 10:00:31;;;;;;;3.58;2.45;;;10.70;99.90;;;;;;5055718;28;20052;-73
2023/04/27 10:03:27;;;;;;;4.65;2.35;;;10.80;99.90;;;;;;5054481;28;20040;-72
2023/04/27 10:06:20;;;;;;;4.32;2.30;;;11.00;99.90;;;;;;5055762;28;20040;-72
2023/04/27 10:08:48;;;;;;;4.22;2.50;;;11.20;99.90;;;;;;5055146;28;20098;-71
2023/04/27 10:11:18;;;;;;;4.22;2.40;;;11.20;99.90;;;;;;5053664;28;20480;-72
2023/04/27 10:13:54;;;;;;;5.47;2.90;;;11.20;99.90;;;;;;5055270;28;20087;-72
2023/04/27 10:16:20;;;;;;;4.03;2.55;;;11.20;99.90;;;;;;5054945;28;20040;-73
2023/04/27 10:18:55;;;;;;;4.82;3.08;;;11.20;99.90;;;;;;5054840;28;20052;-72
2023/04/27 10:21:22;;;;;;;5.50;2.80;;;11.30;99.90;;;;;;5054919;28;20045;-72
2023/04/27 10:23:50;;;;;;;4.22;2.72;;;11.30;99.90;;;;;;5056820;28;20087;-80
2023/04/27 10:26:27;;;;;;;4.15;2.78;;;11.20;99.90;;;;;;5056844;28;20095;-72
2023/04/27 10:29:19;;;;;;;4.95;2.80;;;11.30;99.90;;;;;;5055779;28;20053;-79
2023/04/27 10:31:47;;;;;;;3.47;2.42;;;11.60;99.90;;;;;;5050579;28;20052;-79
2023/04/27 10:34:17;;;;;;;4.90;2.70;;;11.80;99.90;;;;;;5054746;28;20072;-76
2023/04/27 10:36:43;;;;;;;4.00;2.78;;;11.90;99.90;;;;;;5053955;28;20075;-79
2023/04/27 10:39:15;;;;;;;3.63;2.60;;;11.80;99.90;;;;;;5055412;28;20049;-72
2023/04/27 10:41:52;;;;;;;3.53;2.55;;;11.70;99.90;;;;;;5053581;28;20049;-72
2023/04/27 10:44:29;;;;;;;5.20;3.35;;;11.70;99.90;;;;;;5055149;28;20381;-72
2023/04/27 10:47:01;;;;;;;4.03;2.53;;;11.80;99.90;;;;;;5055011;28;20114;-73
2023/04/27 10:49:27;;;;;;;5.85;3.20;;;11.80;99.90;;;;;;5053124;28;20517;-73
2023/04/27 10:51:56;;;;;;;3.22;2.83;;;12.00;99.90;;;;;;5054296;28;20051;-73
2023/04/27 10:54:26;;;;;;;4.22;2.92;;;11.90;99.90;;;;;;5054149;28;20052;-73
2023/04/27 10:56:51;;;;;;;5.40;3.10;;;11.90;99.90;;;;;;5054355;28;20382;-73
2023/04/27 10:59:17;;;;;;;3.95;2.83;;;12.00;99.90;;;;;;5054218;28;20045;-73
2023/04/27 11:01:47;;;;;;;4.28;2.60;;;12.10;99.90;;;;;;5053842;28;20492;-73
2023/04/27 11:04:13;;;;;;;4.30;2.75;;;12.50;99.90;;;;;;5054682;28;20040;-73
2023/04/27 11:06:44;;;;;;;3.50;2.67;;;12.80;99.90;;;;;;5054166;28;20049;-73
2023/04/27 11:09:11;;;;;;;4.35;2.63;;;12.90;99.90;;;;;;5053073;28;20049;-80
2023/04/27 11:11:36;;;;;;;5.50;2.97;;;13.10;99.90;;;;;;5054018;28;20059;-82
2023/04/27 11:14:02;;;;;;;3.80;2.70;;;13.10;99.90;;;;;;5053801;28;20037;-86
2023/04/27 11:16:30;;;;;;;4.35;2.90;;;13.20;99.90;;;;;;5053239;28;20084;-82
2023/04/27 11:19:02;;;;;;;5.10;3.00;;;13.20;99.90;;;;;;5053888;28;20052;-84
2023/04/27 11:21:28;;;;;;;5.10;2.80;;;13.20;99.90;;;;;;5053796;28;20480;-81
2023/04/27 11:23:54;;;;;;;4.00;2.50;;;13.20;99.90;;;;;;5054519;28;20045;-75
2023/04/27 11:26:22;;;;;;;3.80;2.50;;;13.20;99.90;;;;;;5053790;28;20443;-75
2023/04/27 11:29:01;;;;;;;4.22;2.63;;;13.40;99.90;;;;;;5053240;28;20061;-80
2023/04/27 11:31:46;;;;;;;5.57;3.08;;;13.60;99.90;;;;;;5052348;28;20165;-81
2023/04/27 11:34:20;;;;;;;3.95;2.83;;;13.60;99.90;;;;;;5053635;28;20481;-74
2023/04/27 11:37:03;;;;;;;5.13;3.05;;;13.50;99.90;;;;;;5054031;28;20049;-74
2023/04/27 11:39:38;;;;;;;4.78;2.83;;;13.20;99.90;;;;;;5053485;28;20086;-71
2023/04/27 11:42:18;;;;;;;4.15;2.67;;;13.00;99.90;;;;;;5053646;28;20049;-74
2023/04/27 11:45:01;;;;;;;4.43;2.80;;;13.00;99.90;;;;;;5053932;28;20045;-73
2023/04/27 11:47:28;;;;;;;4.70;2.72;;;13.10;99.90;;;;;;5053268;28;20056;-73
2023/04/27 11:49:56;;;;;;;4.47;2.90;;;13.30;99.90;;;;;;5053833;28;20132;-73
2023/04/27 11:52:37;;;;;;;5.35;3.08;;;13.40;99.90;;;;;;5053130;28;20044;-74
2023/04/27 11:55:03;;;;;;;4.53;2.63;;;13.60;99.90;;;;;;5053704;28;20056;-73
2023/04/27 11:57:31;;;;;;;4.03;2.60;;;13.70;99.90;;;;;;5053536;28;20044;-74
2023/04/27 12:00:01;;;;;;;3.95;3.00;;;13.80;99.90;;;;;;5052206;28;20045;-73
2023/04/27 12:02:29;;;;;;;3.85;2.47;;;14.20;99.90;;;;;;5052034;28;20063;-72
2023/04/27 12:04:54;;;;;;;3.05;2.47;;;14.50;99.90;;;;;;5052956;28;20049;-74
2023/04/27 12:07:20;;;;;;;3.97;3.00;;;14.70;99.90;;;;;;5053630;28;20382;-72
2023/04/27 12:09:46;;;;;;;5.15;2.85;;;14.80;99.90;;;;;;5052972;28;20174;-72
2023/04/27 12:12:13;;;;;;;4.82;3.00;;;14.70;99.90;;;;;;5051476;28;20059;-81
2023/04/27 12:14:39;;;;;;;4.75;2.63;;;14.60;99.90;;;;;;5052765;28;20478;-78
2023/04/27 12:17:05;;;;;;;4.07;2.60;;;14.50;99.90;;;;;;5052797;28;20052;-78
2023/04/27 12:19:31;;;;;;;5.70;2.88;;;14.60;99.90;;;;;;5053583;28;20136;-76
2023/04/27 12:21:57;;;;;;;5.13;2.88;;;15.00;99.90;;;;;;5052968;28;20132;-78
2023/04/27 12:24:23;;;;;;;3.83;2.50;;;15.30;99.90;;;;;;5053228;28;20087;-73
2023/04/27 12:26:50;;;;;;;4.25;2.70;;;15.40;99.90;;;;;;5055575;28;20041;-72
2023/04/27 12:29:16;;;;;;;3.83;2.55;;;15.20;99.90;;;;;;5055462;28;20096;-72
2023/04/27 12:31:42;;;;;;;3.38;2.45;;;15.10;99.90;;;;;;5056729;28;20052;-78
2023/04/27 12:34:08;;;;;;;3.90;2.83;;;15.40;99.90;;;;;;5056837;28;20445;-80
2023/04/27 12:36:34;;;;;;;4.07;2.60;;;15.40;99.90;;;;;;5056238;28;20472;-78
2023/04/27 12:39:18;;;;;;;4.20;2.58;;;15.00;99.90;;;;;;5055553;28;20056;-78
2023/04/27 12:41:45;;;;;;;4.30;2.55;;;14.90;99.90;;;;;;5057114;28;20110;-74
2023/04/27 12:44:12;;;;;;;4.30;2.40;;;14.80;99.90;;;;;;5055700;28;20053;-74
2023/04/27 12:46:39;;;;;;;5.03;2.80;;;14.80;99.90;;;;;;5055652;28;20381;-73
2023/04/27 12:49:05;;;;;;;3.35;2.65;;;14.80;99.90;;;;;;5055889;28;20084;-73
2023/04/27 12:51:33;;;;;;;5.38;3.33;;;14.80;99.90;;;;;;5056765;28;20072;-72
2023/04/27 12:53:59;;;;;;;4.80;2.88;;;14.60;99.90;;;;;;5056058;28;20471;-76